sensor_id;sensor_type;location;lat;lon;timestamp;P1;durP1;ratioP1;P2;durP2;ratioP2
15363;SDS011;7781;49.690;6.472;2022-10-16T00:01:07;10.20;;;2.13;;
15363;SDS011;7781;49.690;6.472;2022-10-16T00:03:38;2.80;;;2.50;;
15363;SDS011;7781;49.690;6.472;2022-10-16T00:06:07;7.83;;;2.20;;
15363;SDS011;7781;49.690;6.472;2022-10-16T00:08:36;8.13;;;2.10;;
15363;SDS011;7781;49.690;6.472;2022-10-16T00:11:05;3.77;;;2.30;;
15363;SDS011;7781;49.690;6.472;2022-10-16T00:13:35;6.00;;;2.70;;
15363;SDS011;7781;49.690;6.472;2022-10-16T00:16:04;5.63;;;2.97;;
15363;SDS011;7781;49.690;6.472;2022-10-16T00:18:33;3.63;;;2.40;;
15363;SDS011;7781;49.690;6.472;2022-10-16T00:21:03;4.33;;;2.10;;
15363;SDS011;7781;49.690;6.472;2022-10-16T00:23:51;2.50;;;2.03;;
15363;SDS011;7781;49.690;6.472;2022-10-16T00:26:19;2.83;;;1.73;;
15363;SDS011;7781;49.690;6.472;2022-10-16T00:28:48;9.20;;;2.13;;
15363;SDS011;7781;49.690;6.472;2022-10-16T00:31:18;2.50;;;2.03;;
15363;SDS011;7781;49.690;6.472;2022-10-16T00:33:47;2.27;;;1.80;;
15363;SDS011;7781;49.690;6.472;2022-10-16T00:36:18;2.33;;;2.07;;
15363;SDS011;7781;49.690;6.472;2022-10-16T00:38:49;4.77;;;1.83;;
15363;SDS011;7781;49.690;6.472;2022-10-16T00:41:19;2.33;;;1.70;;
15363;SDS011;7781;49.690;6.472;2022-10-16T00:43:48;1.97;;;1.60;;
15363;SDS011;7781;49.690;6.472;2022-10-16T00:46:19;4.60;;;1.90;;
15363;SDS011;7781;49.690;6.472;2022-10-16T00:48:49;2.43;;;1.50;;
15363;SDS011;7781;49.690;6.472;2022-10-16T00:51:21;2.60;;;1.77;;
15363;SDS011;7781;49.690;6.472;2022-10-16T00:53:53;1.93;;;1.60;;
15363;SDS011;7781;49.690;6.472;2022-10-16T00:56:22;2.87;;;1.17;;
15363;SDS011;7781;49.690;6.472;2022-10-16T00:58:50;4.20;;;1.20;;
15363;SDS011;7781;49.690;6.472;2022-10-16T01:01:18;6.00;;;1.53;;
15363;SDS011;7781;49.690;6.472;2022-10-16T01:03:46;1.27;;;0.90;;
15363;SDS011;7781;49.690;6.472;2022-10-16T01:06:27;1.20;;;1.10;;
15363;SDS011;7781;49.690;6.472;2022-10-16T01:09:07;2.27;;;1.30;;
15363;SDS011;7781;49.690;6.472;2022-10-16T01:11:43;1.00;;;0.90;;
15363;SDS011;7781;49.690;6.472;2022-10-16T01:14:15;2.00;;;0.90;;
15363;SDS011;7781;49.690;6.472;2022-10-16T01:16:50;0.97;;;0.97;;
15363;SDS011;7781;49.690;6.472;2022-10-16T01:19:25;1.20;;;1.10;;
15363;SDS011;7781;49.690;6.472;2022-10-16T01:22:18;1.10;;;1.00;;
15363;SDS011;7781;49.690;6.472;2022-10-16T01:24:49;0.93;;;0.83;;
15363;SDS011;7781;49.690;6.472;2022-10-16T01:27:19;1.97;;;1.07;;
15363;SDS011;7781;49.690;6.472;2022-10-16T01:29:53;2.33;;;1.07;;
15363;SDS011;7781;49.690;6.472;2022-10-16T01:32:27;2.20;;;0.90;;
15363;SDS011;7781;49.690;6.472;2022-10-16T01:35:02;2.20;;;1.20;;
15363;SDS011;7781;49.690;6.472;2022-10-16T01:37:35;2.10;;;1.10;;
15363;SDS011;7781;49.690;6.472;2022-10-16T01:40:07;8.90;;;0.97;;
15363;SDS011;7781;49.690;6.472;2022-10-16T01:42:41;1.57;;;1.10;;
15363;SDS011;7781;49.690;6.472;2022-10-16T01:45:14;0.73;;;0.73;;
15363;SDS011;7781;49.690;6.472;2022-10-16T01:47:45;3.60;;;1.03;;
15363;SDS011;7781;49.690;6.472;2022-10-16T01:50:15;4.03;;;1.80;;
15363;SDS011;7781;49.690;6.472;2022-10-16T01:52:48;3.23;;;1.50;;
15363;SDS011;7781;49.690;6.472;2022-10-16T01:55:21;2.90;;;1.33;;
15363;SDS011;7781;49.690;6.472;2022-10-16T01:57:54;7.00;;;1.33;;
15363;SDS011;7781;49.690;6.472;2022-10-16T02:00:23;1.13;;;1.00;;
15363;SDS011;7781;49.690;6.472;2022-10-16T02:02:54;1.90;;;1.13;;
15363;SDS011;7781;49.690;6.472;2022-10-16T02:05:28;2.73;;;1.20;;
15363;SDS011;7781;49.690;6.472;2022-10-16T02:07:58;7.33;;;1.40;;
15363;SDS011;7781;49.690;6.472;2022-10-16T02:10:31;1.73;;;0.97;;
15363;SDS011;7781;49.690;6.472;2022-10-16T02:13:03;1.30;;;1.20;;
15363;SDS011;7781;49.690;6.472;2022-10-16T02:15:34;2.60;;;1.57;;
15363;SDS011;7781;49.690;6.472;2022-10-16T02:18:03;10.63;;;1.70;;
15363;SDS011;7781;49.690;6.472;2022-10-16T02:20:32;2.87;;;1.70;;
15363;SDS011;7781;49.690;6.472;2022-10-16T02:23:05;2.13;;;1.70;;
15363;SDS011;7781;49.690;6.472;2022-10-16T02:25:37;2.80;;;1.47;;
15363;SDS011;7781;49.690;6.472;2022-10-16T02:28:13;1.63;;;1.20;;
15363;SDS011;7781;49.690;6.472;2022-10-16T02:30:46;1.50;;;1.27;;
15363;SDS011;7781;49.690;6.472;2022-10-16T02:33:18;1.67;;;1.30;;
15363;SDS011;7781;49.690;6.472;2022-10-16T02:35:49;1.53;;;1.43;;
15363;SDS011;7781;49.690;6.472;2022-10-16T02:38:18;2.33;;;1.60;;
15363;SDS011;7781;49.690;6.472;2022-10-16T02:40:48;3.43;;;1.50;;
15363;SDS011;7781;49.690;6.472;2022-10-16T02:43:18;4.93;;;1.50;;
15363;SDS011;7781;49.690;6.472;2022-10-16T02:45:46;3.90;;;1.50;;
15363;SDS011;7781;49.690;6.472;2022-10-16T02:48:14;2.73;;;1.80;;
15363;SDS011;7781;49.690;6.472;2022-10-16T02:50:42;2.13;;;1.47;;
15363;SDS011;7781;49.690;6.472;2022-10-16T02:53:10;1.87;;;1.60;;
15363;SDS011;7781;49.690;6.472;2022-10-16T02:55:38;2.20;;;2.00;;
15363;SDS011;7781;49.690;6.472;2022-10-16T02:58:06;2.30;;;1.57;;
15363;SDS011;7781;49.690;6.472;2022-10-16T03:00:35;3.23;;;1.37;;
15363;SDS011;7781;49.690;6.472;2022-10-16T03:03:03;1.93;;;1.20;;
15363;SDS011;7781;49.690;6.472;2022-10-16T03:05:31;3.47;;;1.47;;
15363;SDS011;7781;49.690;6.472;2022-10-16T03:07:59;3.17;;;1.07;;
15363;SDS011;7781;49.690;6.472;2022-10-16T03:10:27;3.40;;;1.83;;
15363;SDS011;7781;49.690;6.472;2022-10-16T03:12:55;1.73;;;1.60;;
15363;SDS011;7781;49.690;6.472;2022-10-16T03:15:23;2.20;;;1.60;;
15363;SDS011;7781;49.690;6.472;2022-10-16T03:17:53;1.63;;;1.53;;
15363;SDS011;7781;49.690;6.472;2022-10-16T03:20:21;1.83;;;1.60;;
15363;SDS011;7781;49.690;6.472;2022-10-16T03:22:49;3.70;;;1.47;;
15363;SDS011;7781;49.690;6.472;2022-10-16T03:25:17;1.33;;;1.00;;
15363;SDS011;7781;49.690;6.472;2022-10-16T03:27:45;1.47;;;1.30;;
15363;SDS011;7781;49.690;6.472;2022-10-16T03:30:13;1.43;;;1.13;;
15363;SDS011;7781;49.690;6.472;2022-10-16T03:32:43;1.53;;;1.03;;
15363;SDS011;7781;49.690;6.472;2022-10-16T03:35:12;1.00;;;1.00;;
15363;SDS011;7781;49.690;6.472;2022-10-16T03:37:40;3.27;;;1.37;;
15363;SDS011;7781;49.690;6.472;2022-10-16T03:40:09;1.40;;;1.20;;
15363;SDS011;7781;49.690;6.472;2022-10-16T03:42:37;2.23;;;1.00;;
15363;SDS011;7781;49.690;6.472;2022-10-16T03:45:05;1.23;;;0.90;;
15363;SDS011;7781;49.690;6.472;2022-10-16T03:47:34;1.07;;;0.90;;
15363;SDS011;7781;49.690;6.472;2022-10-16T03:50:02;2.00;;;0.90;;
15363;SDS011;7781;49.690;6.472;2022-10-16T03:52:32;1.43;;;1.00;;
15363;SDS011;7781;49.690;6.472;2022-10-16T03:55:00;1.20;;;0.93;;
15363;SDS011;7781;49.690;6.472;2022-10-16T03:57:28;2.50;;;0.90;;
15363;SDS011;7781;49.690;6.472;2022-10-16T03:59:56;5.43;;;0.90;;
15363;SDS011;7781;49.690;6.472;2022-10-16T04:02:24;1.00;;;0.90;;
15363;SDS011;7781;49.690;6.472;2022-10-16T04:04:52;1.00;;;0.80;;
15363;SDS011;7781;49.690;6.472;2022-10-16T04:07:20;1.07;;;0.97;;
15363;SDS011;7781;49.690;6.472;2022-10-16T04:09:50;1.80;;;0.93;;
15363;SDS011;7781;49.690;6.472;2022-10-16T04:12:18;1.13;;;0.70;;
15363;SDS011;7781;49.690;6.472;2022-10-16T04:14:46;3.67;;;0.80;;
15363;SDS011;7781;49.690;6.472;2022-10-16T04:17:14;0.80;;;0.80;;
15363;SDS011;7781;49.690;6.472;2022-10-16T04:19:42;1.37;;;0.70;;
15363;SDS011;7781;49.690;6.472;2022-10-16T04:22:10;2.10;;;1.07;;
15363;SDS011;7781;49.690;6.472;2022-10-16T04:24:38;3.03;;;0.80;;
15363;SDS011;7781;49.690;6.472;2022-10-16T04:27:08;3.03;;;0.70;;
15363;SDS011;7781;49.690;6.472;2022-10-16T04:29:36;1.33;;;1.20;;
15363;SDS011;7781;49.690;6.472;2022-10-16T04:32:04;0.70;;;0.70;;
15363;SDS011;7781;49.690;6.472;2022-10-16T04:34:32;1.90;;;0.90;;
15363;SDS011;7781;49.690;6.472;2022-10-16T04:37:00;1.07;;;0.80;;
15363;SDS011;7781;49.690;6.472;2022-10-16T04:39:28;4.50;;;1.17;;
15363;SDS011;7781;49.690;6.472;2022-10-16T04:41:56;0.80;;;0.80;;
15363;SDS011;7781;49.690;6.472;2022-10-16T04:44:26;4.23;;;1.23;;
15363;SDS011;7781;49.690;6.472;2022-10-16T04:46:54;2.10;;;1.07;;
15363;SDS011;7781;49.690;6.472;2022-10-16T04:49:22;1.30;;;0.87;;
15363;SDS011;7781;49.690;6.472;2022-10-16T04:51:50;3.00;;;1.10;;
15363;SDS011;7781;49.690;6.472;2022-10-16T04:54:18;2.13;;;1.10;;
15363;SDS011;7781;49.690;6.472;2022-10-16T04:56:46;2.30;;;1.00;;
15363;SDS011;7781;49.690;6.472;2022-10-16T04:59:16;2.40;;;0.83;;
15363;SDS011;7781;49.690;6.472;2022-10-16T05:01:47;1.60;;;0.90;;
15363;SDS011;7781;49.690;6.472;2022-10-16T05:04:16;2.60;;;1.00;;
15363;SDS011;7781;49.690;6.472;2022-10-16T05:06:44;1.87;;;1.00;;
15363;SDS011;7781;49.690;6.472;2022-10-16T05:09:12;0.70;;;0.67;;
15363;SDS011;7781;49.690;6.472;2022-10-16T05:11:40;1.23;;;0.87;;
15363;SDS011;7781;49.690;6.472;2022-10-16T05:14:08;1.10;;;1.00;;
15363;SDS011;7781;49.690;6.472;2022-10-16T05:16:41;1.60;;;1.20;;
15363;SDS011;7781;49.690;6.472;2022-10-16T05:19:11;1.20;;;1.10;;
15363;SDS011;7781;49.690;6.472;2022-10-16T05:21:54;3.47;;;1.10;;
15363;SDS011;7781;49.690;6.472;2022-10-16T05:24:23;2.67;;;1.00;;
15363;SDS011;7781;49.690;6.472;2022-10-16T05:26:51;3.93;;;1.10;;
15363;SDS011;7781;49.690;6.472;2022-10-16T05:29:19;2.80;;;1.17;;
15363;SDS011;7781;49.690;6.472;2022-10-16T05:31:49;3.43;;;0.90;;
15363;SDS011;7781;49.690;6.472;2022-10-16T05:34:19;3.93;;;1.20;;
15363;SDS011;7781;49.690;6.472;2022-10-16T05:36:48;1.57;;;0.90;;
15363;SDS011;7781;49.690;6.472;2022-10-16T05:39:16;1.67;;;1.10;;
15363;SDS011;7781;49.690;6.472;2022-10-16T05:41:44;4.10;;;1.00;;
15363;SDS011;7781;49.690;6.472;2022-10-16T05:44:13;7.90;;;1.70;;
15363;SDS011;7781;49.690;6.472;2022-10-16T05:46:41;1.40;;;1.17;;
15363;SDS011;7781;49.690;6.472;2022-10-16T05:49:09;1.70;;;0.87;;
15363;SDS011;7781;49.690;6.472;2022-10-16T05:51:38;1.77;;;0.97;;
15363;SDS011;7781;49.690;6.472;2022-10-16T05:54:08;1.97;;;1.00;;
15363;SDS011;7781;49.690;6.472;2022-10-16T05:56:36;5.70;;;0.80;;
15363;SDS011;7781;49.690;6.472;2022-10-16T05:59:05;2.97;;;1.13;;
15363;SDS011;7781;49.690;6.472;2022-10-16T06:01:33;1.73;;;1.13;;
15363;SDS011;7781;49.690;6.472;2022-10-16T06:04:01;5.50;;;1.13;;
15363;SDS011;7781;49.690;6.472;2022-10-16T06:06:30;1.80;;;1.20;;
15363;SDS011;7781;49.690;6.472;2022-10-16T06:08:59;2.93;;;0.90;;
15363;SDS011;7781;49.690;6.472;2022-10-16T06:11:28;8.77;;;0.90;;
15363;SDS011;7781;49.690;6.472;2022-10-16T06:13:58;3.73;;;0.97;;
15363;SDS011;7781;49.690;6.472;2022-10-16T06:16:29;4.83;;;1.17;;
15363;SDS011;7781;49.690;6.472;2022-10-16T06:18:57;4.53;;;1.07;;
15363;SDS011;7781;49.690;6.472;2022-10-16T06:21:27;1.00;;;0.90;;
15363;SDS011;7781;49.690;6.472;2022-10-16T06:23:56;1.10;;;0.80;;
15363;SDS011;7781;49.690;6.472;2022-10-16T06:26:26;5.07;;;1.63;;
15363;SDS011;7781;49.690;6.472;2022-10-16T06:28:55;1.60;;;1.00;;
15363;SDS011;7781;49.690;6.472;2022-10-16T06:31:24;1.90;;;1.00;;
15363;SDS011;7781;49.690;6.472;2022-10-16T06:33:55;2.33;;;0.90;;
15363;SDS011;7781;49.690;6.472;2022-10-16T06:36:24;2.00;;;1.00;;
15363;SDS011;7781;49.690;6.472;2022-10-16T06:38:53;1.77;;;1.00;;
15363;SDS011;7781;49.690;6.472;2022-10-16T06:41:22;1.90;;;0.80;;
15363;SDS011;7781;49.690;6.472;2022-10-16T06:43:52;2.37;;;1.20;;
15363;SDS011;7781;49.690;6.472;2022-10-16T06:46:21;0.70;;;0.70;;
15363;SDS011;7781;49.690;6.472;2022-10-16T06:48:51;1.63;;;0.80;;
15363;SDS011;7781;49.690;6.472;2022-10-16T06:51:21;2.10;;;0.90;;
15363;SDS011;7781;49.690;6.472;2022-10-16T06:53:50;1.10;;;1.00;;
15363;SDS011;7781;49.690;6.472;2022-10-16T06:56:29;0.87;;;0.87;;
15363;SDS011;7781;49.690;6.472;2022-10-16T06:59:00;1.83;;;0.90;;
15363;SDS011;7781;49.690;6.472;2022-10-16T07:01:29;5.23;;;1.20;;
15363;SDS011;7781;49.690;6.472;2022-10-16T07:03:57;1.50;;;1.03;;
15363;SDS011;7781;49.690;6.472;2022-10-16T07:06:26;1.20;;;1.10;;
15363;SDS011;7781;49.690;6.472;2022-10-16T07:08:54;5.17;;;1.00;;
15363;SDS011;7781;49.690;6.472;2022-10-16T07:11:23;3.13;;;1.10;;
15363;SDS011;7781;49.690;6.472;2022-10-16T07:13:51;1.33;;;1.23;;
15363;SDS011;7781;49.690;6.472;2022-10-16T07:16:23;1.37;;;1.20;;
15363;SDS011;7781;49.690;6.472;2022-10-16T07:18:53;1.73;;;1.23;;
15363;SDS011;7781;49.690;6.472;2022-10-16T07:21:26;1.97;;;1.27;;
15363;SDS011;7781;49.690;6.472;2022-10-16T07:23:55;2.20;;;1.50;;
15363;SDS011;7781;49.690;6.472;2022-10-16T07:26:25;1.77;;;1.40;;
15363;SDS011;7781;49.690;6.472;2022-10-16T07:28:54;3.17;;;1.60;;
15363;SDS011;7781;49.690;6.472;2022-10-16T07:31:24;2.23;;;1.80;;
15363;SDS011;7781;49.690;6.472;2022-10-16T07:33:53;9.90;;;2.23;;
15363;SDS011;7781;49.690;6.472;2022-10-16T07:36:21;2.57;;;1.87;;
15363;SDS011;7781;49.690;6.472;2022-10-16T07:38:49;3.10;;;2.40;;
15363;SDS011;7781;49.690;6.472;2022-10-16T07:41:22;3.40;;;2.00;;
15363;SDS011;7781;49.690;6.472;2022-10-16T07:43:51;5.73;;;2.40;;
15363;SDS011;7781;49.690;6.472;2022-10-16T07:46:21;4.80;;;2.00;;
15363;SDS011;7781;49.690;6.472;2022-10-16T07:48:51;3.43;;;1.73;;
15363;SDS011;7781;49.690;6.472;2022-10-16T07:51:20;5.80;;;2.10;;
15363;SDS011;7781;49.690;6.472;2022-10-16T07:53:51;7.27;;;2.33;;
15363;SDS011;7781;49.690;6.472;2022-10-16T07:56:20;3.17;;;2.13;;
15363;SDS011;7781;49.690;6.472;2022-10-16T07:58:49;2.03;;;1.70;;
15363;SDS011;7781;49.690;6.472;2022-10-16T08:01:18;9.53;;;2.27;;
15363;SDS011;7781;49.690;6.472;2022-10-16T08:03:47;4.87;;;2.20;;
15363;SDS011;7781;49.690;6.472;2022-10-16T08:06:19;3.60;;;1.93;;
15363;SDS011;7781;49.690;6.472;2022-10-16T08:08:53;10.50;;;1.90;;
15363;SDS011;7781;49.690;6.472;2022-10-16T08:11:22;7.47;;;2.43;;
15363;SDS011;7781;49.690;6.472;2022-10-16T08:13:51;2.73;;;1.80;;
15363;SDS011;7781;49.690;6.472;2022-10-16T08:16:19;6.50;;;2.00;;
15363;SDS011;7781;49.690;6.472;2022-10-16T08:18:53;4.77;;;1.90;;
15363;SDS011;7781;49.690;6.472;2022-10-16T08:21:23;3.60;;;2.20;;
15363;SDS011;7781;49.690;6.472;2022-10-16T08:23:52;5.50;;;2.27;;
15363;SDS011;7781;49.690;6.472;2022-10-16T08:26:24;2.57;;;1.63;;
15363;SDS011;7781;49.690;6.472;2022-10-16T08:28:53;6.67;;;1.47;;
15363;SDS011;7781;49.690;6.472;2022-10-16T08:31:24;4.60;;;1.60;;
15363;SDS011;7781;49.690;6.472;2022-10-16T08:33:52;2.77;;;1.77;;
15363;SDS011;7781;49.690;6.472;2022-10-16T08:36:23;5.03;;;1.70;;
15363;SDS011;7781;49.690;6.472;2022-10-16T08:38:51;3.87;;;1.70;;
15363;SDS011;7781;49.690;6.472;2022-10-16T08:41:28;6.07;;;1.50;;
15363;SDS011;7781;49.690;6.472;2022-10-16T08:44:20;4.20;;;1.60;;
15363;SDS011;7781;49.690;6.472;2022-10-16T08:46:58;3.50;;;1.87;;
15363;SDS011;7781;49.690;6.472;2022-10-16T08:49:31;4.20;;;1.60;;
15363;SDS011;7781;49.690;6.472;2022-10-16T08:52:01;7.03;;;1.77;;
15363;SDS011;7781;49.690;6.472;2022-10-16T08:54:29;3.10;;;1.50;;
15363;SDS011;7781;49.690;6.472;2022-10-16T08:57:07;3.93;;;1.87;;
15363;SDS011;7781;49.690;6.472;2022-10-16T08:59:37;2.00;;;1.60;;
15363;SDS011;7781;49.690;6.472;2022-10-16T09:02:13;2.00;;;1.57;;
15363;SDS011;7781;49.690;6.472;2022-10-16T09:05:03;4.53;;;1.90;;
15363;SDS011;7781;49.690;6.472;2022-10-16T09:07:57;4.00;;;2.20;;
15363;SDS011;7781;49.690;6.472;2022-10-16T09:10:40;4.33;;;1.87;;
15363;SDS011;7781;49.690;6.472;2022-10-16T09:13:19;2.53;;;1.30;;
15363;SDS011;7781;49.690;6.472;2022-10-16T09:15:53;9.93;;;2.33;;
15363;SDS011;7781;49.690;6.472;2022-10-16T09:18:29;7.90;;;4.40;;
15363;SDS011;7781;49.690;6.472;2022-10-16T09:21:05;6.53;;;3.73;;
15363;SDS011;7781;49.690;6.472;2022-10-16T09:23:41;6.70;;;3.10;;
15363;SDS011;7781;49.690;6.472;2022-10-16T09:26:11;5.10;;;3.20;;
15363;SDS011;7781;49.690;6.472;2022-10-16T09:28:41;5.40;;;3.30;;
15363;SDS011;7781;49.690;6.472;2022-10-16T09:31:12;5.13;;;2.80;;
15363;SDS011;7781;49.690;6.472;2022-10-16T09:33:43;6.17;;;2.67;;
15363;SDS011;7781;49.690;6.472;2022-10-16T09:36:15;6.10;;;2.90;;
15363;SDS011;7781;49.690;6.472;2022-10-16T09:38:46;2.50;;;2.27;;
15363;SDS011;7781;49.690;6.472;2022-10-16T09:41:17;2.20;;;1.90;;
15363;SDS011;7781;49.690;6.472;2022-10-16T09:43:48;8.83;;;2.40;;
15363;SDS011;7781;49.690;6.472;2022-10-16T09:46:22;3.90;;;2.30;;
15363;SDS011;7781;49.690;6.472;2022-10-16T09:48:56;4.27;;;2.00;;
15363;SDS011;7781;49.690;6.472;2022-10-16T09:51:27;3.80;;;2.23;;
15363;SDS011;7781;49.690;6.472;2022-10-16T09:53:59;1.60;;;1.50;;
15363;SDS011;7781;49.690;6.472;2022-10-16T09:56:29;3.10;;;2.07;;
15363;SDS011;7781;49.690;6.472;2022-10-16T09:58:59;3.30;;;1.60;;
15363;SDS011;7781;49.690;6.472;2022-10-16T10:01:30;5.60;;;1.60;;
15363;SDS011;7781;49.690;6.472;2022-10-16T10:04:05;2.60;;;1.67;;
15363;SDS011;7781;49.690;6.472;2022-10-16T10:06:34;2.10;;;1.43;;
15363;SDS011;7781;49.690;6.472;2022-10-16T10:09:06;1.53;;;1.40;;
15363;SDS011;7781;49.690;6.472;2022-10-16T10:11:46;3.10;;;1.70;;
15363;SDS011;7781;49.690;6.472;2022-10-16T10:14:24;1.50;;;1.40;;
15363;SDS011;7781;49.690;6.472;2022-10-16T10:17:07;1.23;;;1.10;;
15363;SDS011;7781;49.690;6.472;2022-10-16T10:19:39;1.27;;;1.17;;
15363;SDS011;7781;49.690;6.472;2022-10-16T10:22:16;1.57;;;1.10;;
15363;SDS011;7781;49.690;6.472;2022-10-16T10:24:55;1.10;;;1.00;;
15363;SDS011;7781;49.690;6.472;2022-10-16T10:27:26;1.87;;;1.10;;
15363;SDS011;7781;49.690;6.472;2022-10-16T10:30:02;3.10;;;1.63;;
15363;SDS011;7781;49.690;6.472;2022-10-16T10:32:37;1.90;;;1.20;;
15363;SDS011;7781;49.690;6.472;2022-10-16T10:35:14;1.40;;;1.30;;
15363;SDS011;7781;49.690;6.472;2022-10-16T10:37:51;2.77;;;1.00;;
15363;SDS011;7781;49.690;6.472;2022-10-16T10:40:33;1.00;;;0.90;;
15363;SDS011;7781;49.690;6.472;2022-10-16T10:43:13;1.20;;;1.00;;
15363;SDS011;7781;49.690;6.472;2022-10-16T10:45:50;2.00;;;1.07;;
15363;SDS011;7781;49.690;6.472;2022-10-16T10:48:31;1.10;;;1.00;;
15363;SDS011;7781;49.690;6.472;2022-10-16T10:51:18;1.30;;;1.20;;
15363;SDS011;7781;49.690;6.472;2022-10-16T10:53:51;2.40;;;1.10;;
15363;SDS011;7781;49.690;6.472;2022-10-16T10:56:39;2.97;;;1.40;;
15363;SDS011;7781;49.690;6.472;2022-10-16T11:02:22;2.60;;;1.33;;
15363;SDS011;7781;49.690;6.472;2022-10-16T11:05:04;1.33;;;1.23;;
15363;SDS011;7781;49.690;6.472;2022-10-16T11:07:57;1.03;;;1.00;;
15363;SDS011;7781;49.690;6.472;2022-10-16T11:10:28;3.50;;;1.33;;
15363;SDS011;7781;49.690;6.472;2022-10-16T11:13:07;1.27;;;1.17;;
15363;SDS011;7781;49.690;6.472;2022-10-16T11:15:43;1.40;;;1.30;;
15363;SDS011;7781;49.690;6.472;2022-10-16T11:18:16;1.70;;;1.60;;
15363;SDS011;7781;49.690;6.472;2022-10-16T11:20:49;3.90;;;1.60;;
15363;SDS011;7781;49.690;6.472;2022-10-16T11:23:22;1.53;;;1.43;;
15363;SDS011;7781;49.690;6.472;2022-10-16T11:25:55;2.00;;;1.80;;
15363;SDS011;7781;49.690;6.472;2022-10-16T11:28:29;2.77;;;1.80;;
15363;SDS011;7781;49.690;6.472;2022-10-16T11:31:02;5.30;;;2.23;;
15363;SDS011;7781;49.690;6.472;2022-10-16T11:33:37;2.27;;;2.07;;
15363;SDS011;7781;49.690;6.472;2022-10-16T11:36:11;3.03;;;2.20;;
15363;SDS011;7781;49.690;6.472;2022-10-16T11:38:48;4.07;;;2.37;;
15363;SDS011;7781;49.690;6.472;2022-10-16T11:41:23;2.63;;;2.43;;
15363;SDS011;7781;49.690;6.472;2022-10-16T11:44:03;3.10;;;2.50;;
15363;SDS011;7781;49.690;6.472;2022-10-16T11:46:40;6.13;;;2.53;;
15363;SDS011;7781;49.690;6.472;2022-10-16T11:49:26;3.03;;;2.50;;
15363;SDS011;7781;49.690;6.472;2022-10-16T11:51:59;2.77;;;2.27;;
15363;SDS011;7781;49.690;6.472;2022-10-16T11:54:35;2.83;;;2.00;;
15363;SDS011;7781;49.690;6.472;2022-10-16T11:57:09;3.60;;;2.20;;
15363;SDS011;7781;49.690;6.472;2022-10-16T11:59:43;3.27;;;2.57;;
15363;SDS011;7781;49.690;6.472;2022-10-16T12:02:25;3.93;;;2.57;;
15363;SDS011;7781;49.690;6.472;2022-10-16T12:05:05;3.37;;;2.60;;
15363;SDS011;7781;49.690;6.472;2022-10-16T12:07:43;5.57;;;2.87;;
15363;SDS011;7781;49.690;6.472;2022-10-16T12:10:19;3.70;;;2.40;;
15363;SDS011;7781;49.690;6.472;2022-10-16T12:12:53;3.13;;;2.40;;
15363;SDS011;7781;49.690;6.472;2022-10-16T12:15:25;3.33;;;2.40;;
15363;SDS011;7781;49.690;6.472;2022-10-16T12:18:20;3.07;;;2.60;;
15363;SDS011;7781;49.690;6.472;2022-10-16T12:20:54;3.00;;;2.67;;
15363;SDS011;7781;49.690;6.472;2022-10-16T12:23:25;2.43;;;2.23;;
15363;SDS011;7781;49.690;6.472;2022-10-16T12:25:54;2.60;;;2.40;;
15363;SDS011;7781;49.690;6.472;2022-10-16T12:28:26;2.10;;;1.90;;
15363;SDS011;7781;49.690;6.472;2022-10-16T12:30:57;3.40;;;2.13;;
15363;SDS011;7781;49.690;6.472;2022-10-16T12:33:27;2.70;;;2.40;;
15363;SDS011;7781;49.690;6.472;2022-10-16T12:35:57;3.73;;;2.13;;
15363;SDS011;7781;49.690;6.472;2022-10-16T12:38:27;5.43;;;2.30;;
15363;SDS011;7781;49.690;6.472;2022-10-16T12:40:58;1.93;;;1.73;;
15363;SDS011;7781;49.690;6.472;2022-10-16T12:43:38;2.37;;;2.10;;
15363;SDS011;7781;49.690;6.472;2022-10-16T12:46:34;3.10;;;2.30;;
15363;SDS011;7781;49.690;6.472;2022-10-16T12:49:06;3.27;;;2.27;;
15363;SDS011;7781;49.690;6.472;2022-10-16T12:51:49;3.10;;;2.30;;
15363;SDS011;7781;49.690;6.472;2022-10-16T12:54:17;2.57;;;2.30;;
15363;SDS011;7781;49.690;6.472;2022-10-16T12:56:53;2.50;;;1.97;;
15363;SDS011;7781;49.690;6.472;2022-10-16T12:59:46;5.10;;;2.57;;
15363;SDS011;7781;49.690;6.472;2022-10-16T13:02:36;3.00;;;2.30;;
15363;SDS011;7781;49.690;6.472;2022-10-16T13:05:23;3.17;;;2.30;;
15363;SDS011;7781;49.690;6.472;2022-10-16T13:08:00;3.17;;;2.33;;
15363;SDS011;7781;49.690;6.472;2022-10-16T13:10:46;4.53;;;2.47;;
15363;SDS011;7781;49.690;6.472;2022-10-16T13:16:28;2.23;;;2.00;;
15363;SDS011;7781;49.690;6.472;2022-10-16T13:19:08;4.50;;;2.20;;
15363;SDS011;7781;49.690;6.472;2022-10-16T13:21:48;3.50;;;2.37;;
15363;SDS011;7781;49.690;6.472;2022-10-16T13:24:26;4.07;;;2.70;;
15363;SDS011;7781;49.690;6.472;2022-10-16T13:27:10;3.27;;;2.17;;
15363;SDS011;7781;49.690;6.472;2022-10-16T13:29:45;3.30;;;2.60;;
15363;SDS011;7781;49.690;6.472;2022-10-16T13:32:21;3.20;;;2.47;;
15363;SDS011;7781;49.690;6.472;2022-10-16T13:34:51;3.53;;;2.60;;
15363;SDS011;7781;49.690;6.472;2022-10-16T13:37:21;3.60;;;2.50;;
15363;SDS011;7781;49.690;6.472;2022-10-16T13:39:51;6.13;;;3.70;;
15363;SDS011;7781;49.690;6.472;2022-10-16T13:42:29;8.53;;;5.80;;
15363;SDS011;7781;49.690;6.472;2022-10-16T13:44:57;3.93;;;2.40;;
15363;SDS011;7781;49.690;6.472;2022-10-16T13:47:25;3.00;;;2.50;;
15363;SDS011;7781;49.690;6.472;2022-10-16T13:50:02;3.40;;;2.60;;
15363;SDS011;7781;49.690;6.472;2022-10-16T13:52:31;3.33;;;2.70;;
15363;SDS011;7781;49.690;6.472;2022-10-16T13:55:00;5.73;;;2.60;;
15363;SDS011;7781;49.690;6.472;2022-10-16T13:57:28;5.63;;;2.20;;
15363;SDS011;7781;49.690;6.472;2022-10-16T13:59:56;5.03;;;3.03;;
15363;SDS011;7781;49.690;6.472;2022-10-16T14:02:25;5.10;;;2.80;;
15363;SDS011;7781;49.690;6.472;2022-10-16T14:04:56;3.10;;;2.23;;
15363;SDS011;7781;49.690;6.472;2022-10-16T14:07:27;2.60;;;2.40;;
15363;SDS011;7781;49.690;6.472;2022-10-16T14:09:58;3.30;;;2.77;;
15363;SDS011;7781;49.690;6.472;2022-10-16T14:12:29;4.47;;;2.40;;
15363;SDS011;7781;49.690;6.472;2022-10-16T14:14:58;2.10;;;1.90;;
15363;SDS011;7781;49.690;6.472;2022-10-16T14:17:27;2.30;;;2.00;;
15363;SDS011;7781;49.690;6.472;2022-10-16T14:19:57;3.83;;;2.00;;
15363;SDS011;7781;49.690;6.472;2022-10-16T14:22:34;3.07;;;2.00;;
15363;SDS011;7781;49.690;6.472;2022-10-16T14:25:15;3.30;;;2.40;;
15363;SDS011;7781;49.690;6.472;2022-10-16T14:27:56;2.23;;;2.03;;
15363;SDS011;7781;49.690;6.472;2022-10-16T14:30:31;2.70;;;2.03;;
15363;SDS011;7781;49.690;6.472;2022-10-16T14:33:02;3.03;;;2.20;;
15363;SDS011;7781;49.690;6.472;2022-10-16T14:35:32;6.97;;;2.13;;
15363;SDS011;7781;49.690;6.472;2022-10-16T14:38:03;9.20;;;2.20;;
15363;SDS011;7781;49.690;6.472;2022-10-16T14:40:33;3.03;;;2.50;;
15363;SDS011;7781;49.690;6.472;2022-10-16T14:43:04;7.93;;;2.43;;
15363;SDS011;7781;49.690;6.472;2022-10-16T14:45:33;5.60;;;2.60;;
15363;SDS011;7781;49.690;6.472;2022-10-16T14:48:03;4.87;;;3.10;;
15363;SDS011;7781;49.690;6.472;2022-10-16T14:50:33;2.70;;;2.43;;
15363;SDS011;7781;49.690;6.472;2022-10-16T14:53:04;5.00;;;3.20;;
15363;SDS011;7781;49.690;6.472;2022-10-16T14:55:38;4.87;;;3.13;;
15363;SDS011;7781;49.690;6.472;2022-10-16T14:58:08;3.40;;;3.10;;
15363;SDS011;7781;49.690;6.472;2022-10-16T15:00:40;3.67;;;2.77;;
15363;SDS011;7781;49.690;6.472;2022-10-16T15:03:08;11.33;;;2.60;;
15363;SDS011;7781;49.690;6.472;2022-10-16T15:05:37;3.67;;;2.80;;
15363;SDS011;7781;49.690;6.472;2022-10-16T15:08:06;3.40;;;2.90;;
15363;SDS011;7781;49.690;6.472;2022-10-16T15:10:35;9.27;;;2.93;;
15363;SDS011;7781;49.690;6.472;2022-10-16T15:13:08;4.10;;;2.60;;
15363;SDS011;7781;49.690;6.472;2022-10-16T15:15:40;5.47;;;2.67;;
15363;SDS011;7781;49.690;6.472;2022-10-16T15:18:10;3.10;;;2.63;;
15363;SDS011;7781;49.690;6.472;2022-10-16T15:20:38;4.00;;;2.50;;
15363;SDS011;7781;49.690;6.472;2022-10-16T15:23:10;4.03;;;2.27;;
15363;SDS011;7781;49.690;6.472;2022-10-16T15:25:43;5.90;;;2.80;;
15363;SDS011;7781;49.690;6.472;2022-10-16T15:28:13;3.67;;;2.60;;
15363;SDS011;7781;49.690;6.472;2022-10-16T15:30:42;4.47;;;2.77;;
15363;SDS011;7781;49.690;6.472;2022-10-16T15:33:13;4.23;;;2.73;;
15363;SDS011;7781;49.690;6.472;2022-10-16T15:35:42;3.60;;;2.93;;